sensor_id;sensor_type;location;lat;lon;timestamp;P1;durP1;ratioP1;P2;durP2;ratioP2
32026;SDS011;18543;50.848;4.596;2022-12-29T00:00:10;0.60;;;0.60;;
32026;SDS011;18543;50.848;4.596;2022-12-29T00:02:38;1.02;;;0.60;;
32026;SDS011;18543;50.848;4.596;2022-12-29T00:05:05;0.60;;;0.60;;
32026;SDS011;18543;50.848;4.596;2022-12-29T00:07:33;0.65;;;0.52;;
32026;SDS011;18543;50.848;4.596;2022-12-29T00:10:00;1.38;;;0.70;;
32026;SDS011;18543;50.848;4.596;2022-12-29T00:12:27;0.70;;;0.70;;
32026;SDS011;18543;50.848;4.596;2022-12-29T00:15:14;0.75;;;0.63;;
32026;SDS011;18543;50.848;4.596;2022-12-29T00:18:00;0.98;;;0.75;;
32026;SDS011;18543;50.848;4.596;2022-12-29T00:20:27;0.77;;;0.60;;
32026;SDS011;18543;50.848;4.596;2022-12-29T00:23:12;0.70;;;0.70;;
32026;SDS011;18543;50.848;4.596;2022-12-29T00:25:57;0.90;;;0.63;;
32026;SDS011;18543;50.848;4.596;2022-12-29T00:28:47;0.60;;;0.60;;
32026;SDS011;18543;50.848;4.596;2022-12-29T00:31:32;0.70;;;0.60;;
32026;SDS011;18543;50.848;4.596;2022-12-29T00:34:18;0.60;;;0.60;;
32026;SDS011;18543;50.848;4.596;2022-12-29T00:37:03;0.60;;;0.60;;
32026;SDS011;18543;50.848;4.596;2022-12-29T00:39:30;1.17;;;0.50;;
32026;SDS011;18543;50.848;4.596;2022-12-29T00:42:15;1.48;;;0.73;;
32026;SDS011;18543;50.848;4.596;2022-12-29T00:45:00;0.73;;;0.63;;
32026;SDS011;18543;50.848;4.596;2022-12-29T00:47:27;0.70;;;0.70;;
32026;SDS011;18543;50.848;4.596;2022-12-29T00:49:54;1.53;;;0.57;;
32026;SDS011;18543;50.848;4.596;2022-12-29T00:52:21;0.50;;;0.50;;
32026;SDS011;18543;50.848;4.596;2022-12-29T00:54:48;1.17;;;0.70;;
32026;SDS011;18543;50.848;4.596;2022-12-29T00:57:15;0.60;;;0.60;;
32026;SDS011;18543;50.848;4.596;2022-12-29T00:59:43;0.60;;;0.60;;
32026;SDS011;18543;50.848;4.596;2022-12-29T01:02:11;0.40;;;0.40;;
32026;SDS011;18543;50.848;4.596;2022-12-29T01:04:40;0.50;;;0.50;;
32026;SDS011;18543;50.848;4.596;2022-12-29T01:07:07;0.63;;;0.60;;
32026;SDS011;18543;50.848;4.596;2022-12-29T01:09:34;0.60;;;0.60;;
32026;SDS011;18543;50.848;4.596;2022-12-29T01:12:19;2.00;;;0.63;;
32026;SDS011;18543;50.848;4.596;2022-12-29T01:15:07;0.52;;;0.50;;
32026;SDS011;18543;50.848;4.596;2022-12-29T01:17:35;0.40;;;0.40;;
32026;SDS011;18543;50.848;4.596;2022-12-29T01:20:02;0.60;;;0.60;;
32026;SDS011;18543;50.848;4.596;2022-12-29T01:22:30;0.60;;;0.60;;
32026;SDS011;18543;50.848;4.596;2022-12-29T01:27:25;0.60;;;0.60;;
32026;SDS011;18543;50.848;4.596;2022-12-29T01:29:53;0.60;;;0.60;;
32026;SDS011;18543;50.848;4.596;2022-12-29T01:32:19;1.00;;;0.60;;
32026;SDS011;18543;50.848;4.596;2022-12-29T01:34:46;1.77;;;0.68;;
32026;SDS011;18543;50.848;4.596;2022-12-29T01:37:13;0.60;;;0.60;;
32026;SDS011;18543;50.848;4.596;2022-12-29T01:39:40;1.30;;;0.60;;
32026;SDS011;18543;50.848;4.596;2022-12-29T01:42:12;0.85;;;0.65;;
32026;SDS011;18543;50.848;4.596;2022-12-29T01:50:04;0.68;;;0.60;;
32026;SDS011;18543;50.848;4.596;2022-12-29T01:52:36;0.65;;;0.57;;
32026;SDS011;18543;50.848;4.596;2022-12-29T01:55:08;0.60;;;0.60;;
32026;SDS011;18543;50.848;4.596;2022-12-29T01:57:40;0.52;;;0.52;;
32026;SDS011;18543;50.848;4.596;2022-12-29T02:00:11;0.45;;;0.45;;
32026;SDS011;18543;50.848;4.596;2022-12-29T02:02:43;0.60;;;0.60;;
32026;SDS011;18543;50.848;4.596;2022-12-29T02:05:16;0.60;;;0.60;;
32026;SDS011;18543;50.848;4.596;2022-12-29T02:07:51;0.60;;;0.60;;
32026;SDS011;18543;50.848;4.596;2022-12-29T02:10:22;0.68;;;0.50;;
32026;SDS011;18543;50.848;4.596;2022-12-29T02:12:52;0.70;;;0.52;;
32026;SDS011;18543;50.848;4.596;2022-12-29T02:15:21;0.60;;;0.60;;
32026;SDS011;18543;50.848;4.596;2022-12-29T02:18:18;1.05;;;0.70;;
32026;SDS011;18543;50.848;4.596;2022-12-29T02:23:49;0.50;;;0.50;;
32026;SDS011;18543;50.848;4.596;2022-12-29T02:32:30;0.50;;;0.50;;
32026;SDS011;18543;50.848;4.596;2022-12-29T02:37:43;0.50;;;0.50;;
32026;SDS011;18543;50.848;4.596;2022-12-29T02:40:37;0.65;;;0.50;;
32026;SDS011;18543;50.848;4.596;2022-12-29T02:43:33;0.40;;;0.40;;
32026;SDS011;18543;50.848;4.596;2022-12-29T02:51:33;0.50;;;0.50;;
32026;SDS011;18543;50.848;4.596;2022-12-29T02:54:07;0.50;;;0.50;;
32026;SDS011;18543;50.848;4.596;2022-12-29T02:56:52;0.50;;;0.50;;
32026;SDS011;18543;50.848;4.596;2022-12-29T02:59:19;0.73;;;0.57;;
32026;SDS011;18543;50.848;4.596;2022-12-29T03:07:46;0.75;;;0.60;;
32026;SDS011;18543;50.848;4.596;2022-12-29T03:19:06;0.57;;;0.57;;
32026;SDS011;18543;50.848;4.596;2022-12-29T03:21:41;0.50;;;0.50;;
32026;SDS011;18543;50.848;4.596;2022-12-29T03:24:30;1.05;;;0.52;;
32026;SDS011;18543;50.848;4.596;2022-12-29T03:27:01;0.40;;;0.40;;
32026;SDS011;18543;50.848;4.596;2022-12-29T03:29:33;0.50;;;0.50;;
32026;SDS011;18543;50.848;4.596;2022-12-29T03:32:03;1.27;;;0.57;;
32026;SDS011;18543;50.848;4.596;2022-12-29T03:34:32;0.50;;;0.50;;
32026;SDS011;18543;50.848;4.596;2022-12-29T03:37:03;0.40;;;0.40;;
32026;SDS011;18543;50.848;4.596;2022-12-29T03:39:35;0.50;;;0.50;;
32026;SDS011;18543;50.848;4.596;2022-12-29T03:42:04;0.47;;;0.47;;
32026;SDS011;18543;50.848;4.596;2022-12-29T03:44:37;0.50;;;0.50;;
32026;SDS011;18543;50.848;4.596;2022-12-29T03:47:07;0.60;;;0.60;;
32026;SDS011;18543;50.848;4.596;2022-12-29T03:49:35;0.50;;;0.50;;
32026;SDS011;18543;50.848;4.596;2022-12-29T03:52:02;0.50;;;0.50;;
32026;SDS011;18543;50.848;4.596;2022-12-29T03:54:30;0.57;;;0.47;;
32026;SDS011;18543;50.848;4.596;2022-12-29T03:56:57;0.50;;;0.50;;
32026;SDS011;18543;50.848;4.596;2022-12-29T03:59:24;0.57;;;0.57;;
32026;SDS011;18543;50.848;4.596;2022-12-29T04:01:51;0.63;;;0.50;;
32026;SDS011;18543;50.848;4.596;2022-12-29T04:04:18;0.60;;;0.60;;
32026;SDS011;18543;50.848;4.596;2022-12-29T04:06:45;0.50;;;0.50;;
32026;SDS011;18543;50.848;4.596;2022-12-29T04:09:13;0.53;;;0.40;;
32026;SDS011;18543;50.848;4.596;2022-12-29T04:11:40;0.50;;;0.50;;
32026;SDS011;18543;50.848;4.596;2022-12-29T04:14:07;0.53;;;0.50;;
32026;SDS011;18543;50.848;4.596;2022-12-29T04:16:37;0.60;;;0.60;;
32026;SDS011;18543;50.848;4.596;2022-12-29T04:19:05;0.85;;;0.57;;
32026;SDS011;18543;50.848;4.596;2022-12-29T04:21:33;0.60;;;0.60;;
32026;SDS011;18543;50.848;4.596;2022-12-29T04:24:00;0.52;;;0.52;;
32026;SDS011;18543;50.848;4.596;2022-12-29T04:26:28;0.55;;;0.55;;
32026;SDS011;18543;50.848;4.596;2022-12-29T04:28:55;0.50;;;0.50;;
32026;SDS011;18543;50.848;4.596;2022-12-29T04:31:21;0.73;;;0.52;;
32026;SDS011;18543;50.848;4.596;2022-12-29T04:33:48;0.60;;;0.60;;
32026;SDS011;18543;50.848;4.596;2022-12-29T04:36:15;0.60;;;0.60;;
32026;SDS011;18543;50.848;4.596;2022-12-29T04:38:43;0.50;;;0.50;;
32026;SDS011;18543;50.848;4.596;2022-12-29T04:41:10;0.57;;;0.57;;
32026;SDS011;18543;50.848;4.596;2022-12-29T04:43:37;0.87;;;0.50;;
32026;SDS011;18543;50.848;4.596;2022-12-29T04:46:04;0.60;;;0.52;;
32026;SDS011;18543;50.848;4.596;2022-12-29T04:48:32;0.52;;;0.47;;
32026;SDS011;18543;50.848;4.596;2022-12-29T04:50:59;0.50;;;0.50;;
32026;SDS011;18543;50.848;4.596;2022-12-29T04:53:26;0.52;;;0.50;;
32026;SDS011;18543;50.848;4.596;2022-12-29T04:55:56;0.50;;;0.50;;
32026;SDS011;18543;50.848;4.596;2022-12-29T04:58:22;0.52;;;0.52;;
32026;SDS011;18543;50.848;4.596;2022-12-29T05:00:50;0.50;;;0.50;;
32026;SDS011;18543;50.848;4.596;2022-12-29T05:03:17;0.47;;;0.47;;
32026;SDS011;18543;50.848;4.596;2022-12-29T05:05:44;0.57;;;0.43;;
32026;SDS011;18543;50.848;4.596;2022-12-29T05:08:11;0.60;;;0.60;;
32026;SDS011;18543;50.848;4.596;2022-12-29T05:10:38;1.38;;;0.60;;
32026;SDS011;18543;50.848;4.596;2022-12-29T05:13:05;1.17;;;0.60;;
32026;SDS011;18543;50.848;4.596;2022-12-29T05:15:32;1.02;;;0.60;;
32026;SDS011;18543;50.848;4.596;2022-12-29T05:17:59;0.50;;;0.50;;
32026;SDS011;18543;50.848;4.596;2022-12-29T05:20:26;0.80;;;0.60;;
32026;SDS011;18543;50.848;4.596;2022-12-29T05:22:53;0.40;;;0.40;;
32026;SDS011;18543;50.848;4.596;2022-12-29T05:25:20;0.50;;;0.50;;
32026;SDS011;18543;50.848;4.596;2022-12-29T05:27:47;0.50;;;0.50;;
32026;SDS011;18543;50.848;4.596;2022-12-29T05:30:13;0.40;;;0.40;;
32026;SDS011;18543;50.848;4.596;2022-12-29T05:32:40;1.17;;;0.55;;
32026;SDS011;18543;50.848;4.596;2022-12-29T05:35:07;0.50;;;0.50;;
32026;SDS011;18543;50.848;4.596;2022-12-29T05:37:34;0.40;;;0.40;;
32026;SDS011;18543;50.848;4.596;2022-12-29T05:40:01;0.77;;;0.60;;
32026;SDS011;18543;50.848;4.596;2022-12-29T05:42:29;0.77;;;0.50;;
32026;SDS011;18543;50.848;4.596;2022-12-29T05:44:56;1.20;;;0.70;;
32026;SDS011;18543;50.848;4.596;2022-12-29T05:47:23;0.50;;;0.50;;
32026;SDS011;18543;50.848;4.596;2022-12-29T05:49:50;0.73;;;0.57;;
32026;SDS011;18543;50.848;4.596;2022-12-29T05:52:17;1.27;;;0.60;;
32026;SDS011;18543;50.848;4.596;2022-12-29T05:54:44;0.43;;;0.43;;
32026;SDS011;18543;50.848;4.596;2022-12-29T05:57:11;0.60;;;0.50;;
32026;SDS011;18543;50.848;4.596;2022-12-29T05:59:38;0.60;;;0.60;;
32026;SDS011;18543;50.848;4.596;2022-12-29T06:02:05;0.57;;;0.57;;
32026;SDS011;18543;50.848;4.596;2022-12-29T06:04:32;1.08;;;0.80;;
32026;SDS011;18543;50.848;4.596;2022-12-29T06:06:59;0.90;;;0.70;;
32026;SDS011;18543;50.848;4.596;2022-12-29T06:09:27;1.40;;;0.80;;
32026;SDS011;18543;50.848;4.596;2022-12-29T06:11:54;1.15;;;0.80;;
32026;SDS011;18543;50.848;4.596;2022-12-29T06:14:20;1.35;;;0.70;;
32026;SDS011;18543;50.848;4.596;2022-12-29T06:16:47;1.65;;;0.80;;
32026;SDS011;18543;50.848;4.596;2022-12-29T06:19:14;0.95;;;0.70;;
32026;SDS011;18543;50.848;4.596;2022-12-29T06:21:42;1.25;;;0.73;;
32026;SDS011;18543;50.848;4.596;2022-12-29T06:24:09;1.23;;;0.80;;
32026;SDS011;18543;50.848;4.596;2022-12-29T06:26:37;2.90;;;0.80;;
32026;SDS011;18543;50.848;4.596;2022-12-29T06:29:04;1.17;;;0.85;;
32026;SDS011;18543;50.848;4.596;2022-12-29T06:31:30;3.47;;;0.80;;
32026;SDS011;18543;50.848;4.596;2022-12-29T06:33:57;1.23;;;0.68;;
32026;SDS011;18543;50.848;4.596;2022-12-29T06:36:33;0.73;;;0.60;;
32026;SDS011;18543;50.848;4.596;2022-12-29T06:39:00;1.92;;;0.80;;
32026;SDS011;18543;50.848;4.596;2022-12-29T06:41:27;2.17;;;0.90;;
32026;SDS011;18543;50.848;4.596;2022-12-29T06:43:57;3.08;;;0.90;;
32026;SDS011;18543;50.848;4.596;2022-12-29T06:46:24;3.22;;;0.95;;
32026;SDS011;18543;50.848;4.596;2022-12-29T06:48:51;1.48;;;0.75;;
32026;SDS011;18543;50.848;4.596;2022-12-29T06:51:18;4.63;;;0.93;;
32026;SDS011;18543;50.848;4.596;2022-12-29T06:53:45;2.35;;;0.82;;
32026;SDS011;18543;50.848;4.596;2022-12-29T06:56:11;3.17;;;1.10;;
32026;SDS011;18543;50.848;4.596;2022-12-29T06:58:38;2.65;;;0.82;;
32026;SDS011;18543;50.848;4.596;2022-12-29T07:01:05;2.00;;;0.80;;
32026;SDS011;18543;50.848;4.596;2022-12-29T07:03:32;2.05;;;0.98;;
32026;SDS011;18543;50.848;4.596;2022-12-29T07:06:00;1.05;;;0.80;;
32026;SDS011;18543;50.848;4.596;2022-12-29T07:08:26;1.95;;;0.90;;
32026;SDS011;18543;50.848;4.596;2022-12-29T07:10:53;1.50;;;1.00;;
32026;SDS011;18543;50.848;4.596;2022-12-29T07:13:20;1.92;;;0.82;;
32026;SDS011;18543;50.848;4.596;2022-12-29T07:15:47;3.28;;;1.00;;
32026;SDS011;18543;50.848;4.596;2022-12-29T07:18:14;1.77;;;0.90;;
32026;SDS011;18543;50.848;4.596;2022-12-29T07:23:09;1.90;;;0.70;;
32026;SDS011;18543;50.848;4.596;2022-12-29T07:25:36;3.63;;;0.90;;
32026;SDS011;18543;50.848;4.596;2022-12-29T07:28:03;4.72;;;1.00;;
32026;SDS011;18543;50.848;4.596;2022-12-29T07:30:30;2.88;;;0.90;;
32026;SDS011;18543;50.848;4.596;2022-12-29T07:32:57;3.15;;;1.00;;
32026;SDS011;18543;50.848;4.596;2022-12-29T07:35:24;2.25;;;0.85;;
32026;SDS011;18543;50.848;4.596;2022-12-29T07:37:51;1.47;;;0.80;;
32026;SDS011;18543;50.848;4.596;2022-12-29T07:40:19;2.27;;;0.87;;
32026;SDS011;18543;50.848;4.596;2022-12-29T07:42:46;2.40;;;0.90;;
32026;SDS011;18543;50.848;4.596;2022-12-29T07:45:13;2.58;;;1.08;;
32026;SDS011;18543;50.848;4.596;2022-12-29T07:47:39;2.95;;;1.02;;
32026;SDS011;18543;50.848;4.596;2022-12-29T07:50:06;2.03;;;0.95;;
32026;SDS011;18543;50.848;4.596;2022-12-29T07:52:33;3.10;;;0.88;;
32026;SDS011;18543;50.848;4.596;2022-12-29T07:55:00;4.53;;;1.02;;
32026;SDS011;18543;50.848;4.596;2022-12-29T07:57:27;1.77;;;0.88;;
32026;SDS011;18543;50.848;4.596;2022-12-29T07:59:57;1.63;;;1.08;;
32026;SDS011;18543;50.848;4.596;2022-12-29T08:02:24;3.40;;;0.98;;
32026;SDS011;18543;50.848;4.596;2022-12-29T08:04:52;2.72;;;1.00;;
32026;SDS011;18543;50.848;4.596;2022-12-29T08:07:19;2.03;;;0.85;;
32026;SDS011;18543;50.848;4.596;2022-12-29T08:09:46;3.03;;;1.10;;
32026;SDS011;18543;50.848;4.596;2022-12-29T08:12:13;3.92;;;0.93;;
32026;SDS011;18543;50.848;4.596;2022-12-29T08:14:40;3.53;;;1.02;;
32026;SDS011;18543;50.848;4.596;2022-12-29T08:17:07;2.03;;;0.90;;
32026;SDS011;18543;50.848;4.596;2022-12-29T08:19:33;4.22;;;1.15;;
32026;SDS011;18543;50.848;4.596;2022-12-29T08:22:00;3.33;;;1.00;;
32026;SDS011;18543;50.848;4.596;2022-12-29T08:24:27;2.88;;;0.98;;
32026;SDS011;18543;50.848;4.596;2022-12-29T08:26:55;2.75;;;1.00;;
32026;SDS011;18543;50.848;4.596;2022-12-29T08:29:22;2.60;;;1.10;;
32026;SDS011;18543;50.848;4.596;2022-12-29T08:31:49;2.97;;;1.00;;
32026;SDS011;18543;50.848;4.596;2022-12-29T08:34:16;1.23;;;0.80;;
32026;SDS011;18543;50.848;4.596;2022-12-29T08:36:43;1.50;;;1.00;;
32026;SDS011;18543;50.848;4.596;2022-12-29T08:39:12;2.70;;;0.90;;
32026;SDS011;18543;50.848;4.596;2022-12-29T08:41:39;3.33;;;0.97;;
32026;SDS011;18543;50.848;4.596;2022-12-29T08:44:07;1.63;;;0.90;;
32026;SDS011;18543;50.848;4.596;2022-12-29T08:46:34;1.97;;;1.00;;
32026;SDS011;18543;50.848;4.596;2022-12-29T08:49:01;2.72;;;0.77;;
32026;SDS011;18543;50.848;4.596;2022-12-29T08:51:28;4.30;;;0.97;;
32026;SDS011;18543;50.848;4.596;2022-12-29T08:53:55;2.08;;;1.00;;
32026;SDS011;18543;50.848;4.596;2022-12-29T08:56:22;2.40;;;1.10;;
32026;SDS011;18543;50.848;4.596;2022-12-29T08:58:50;2.22;;;1.27;;
32026;SDS011;18543;50.848;4.596;2022-12-29T09:01:19;1.98;;;0.90;;
32026;SDS011;18543;50.848;4.596;2022-12-29T09:06:33;2.63;;;0.83;;
32026;SDS011;18543;50.848;4.596;2022-12-29T09:09:05;1.92;;;0.90;;
32026;SDS011;18543;50.848;4.596;2022-12-29T09:11:32;3.03;;;0.90;;
32026;SDS011;18543;50.848;4.596;2022-12-29T09:13:59;3.55;;;1.00;;
32026;SDS011;18543;50.848;4.596;2022-12-29T09:16:27;4.83;;;1.10;;
32026;SDS011;18543;50.848;4.596;2022-12-29T09:18:54;2.10;;;0.85;;
32026;SDS011;18543;50.848;4.596;2022-12-29T09:21:21;2.67;;;1.15;;
32026;SDS011;18543;50.848;4.596;2022-12-29T09:23:48;2.20;;;0.90;;
32026;SDS011;18543;50.848;4.596;2022-12-29T09:26:17;3.47;;;1.00;;
32026;SDS011;18543;50.848;4.596;2022-12-29T09:28:45;2.70;;;1.10;;
32026;SDS011;18543;50.848;4.596;2022-12-29T09:33:40;2.72;;;1.00;;
32026;SDS011;18543;50.848;4.596;2022-12-29T09:36:08;3.20;;;1.03;;
32026;SDS011;18543;50.848;4.596;2022-12-29T09:38:35;3.08;;;0.93;;
32026;SDS011;18543;50.848;4.596;2022-12-29T09:41:08;1.80;;;0.90;;
32026;SDS011;18543;50.848;4.596;2022-12-29T09:46:42;1.85;;;0.90;;
32026;SDS011;18543;50.848;4.596;2022-12-29T09:51:50;2.55;;;1.02;;
32026;SDS011;18543;50.848;4.596;2022-12-29T09:57:26;1.88;;;1.10;;
32026;SDS011;18543;50.848;4.596;2022-12-29T09:59:59;1.75;;;1.00;;
32026;SDS011;18543;50.848;4.596;2022-12-29T10:06:11;1.85;;;1.02;;
32026;SDS011;18543;50.848;4.596;2022-12-29T10:11:15;2.15;;;0.95;;
32026;SDS011;18543;50.848;4.596;2022-12-29T10:19:27;3.20;;;1.00;;
32026;SDS011;18543;50.848;4.596;2022-12-29T10:24:30;4.45;;;1.20;;
32026;SDS011;18543;50.848;4.596;2022-12-29T10:27:00;2.17;;;1.00;;
32026;SDS011;18543;50.848;4.596;2022-12-29T10:29:29;2.25;;;0.98;;
32026;SDS011;18543;50.848;4.596;2022-12-29T10:32:21;1.73;;;1.05;;
32026;SDS011;18543;50.848;4.596;2022-12-29T10:34:57;3.80;;;1.38;;
32026;SDS011;18543;50.848;4.596;2022-12-29T10:37:32;2.55;;;0.93;;
32026;SDS011;18543;50.848;4.596;2022-12-29T10:43:32;2.35;;;0.90;;
32026;SDS011;18543;50.848;4.596;2022-12-29T10:46:08;2.65;;;1.20;;
32026;SDS011;18543;50.848;4.596;2022-12-29T10:48:38;4.43;;;1.10;;
32026;SDS011;18543;50.848;4.596;2022-12-29T10:51:11;1.98;;;1.10;;
32026;SDS011;18543;50.848;4.596;2022-12-29T10:53:46;4.32;;;1.17;;
32026;SDS011;18543;50.848;4.596;2022-12-29T10:58:54;4.05;;;1.30;;
32026;SDS011;18543;50.848;4.596;2022-12-29T11:01:25;5.40;;;1.85;;
32026;SDS011;18543;50.848;4.596;2022-12-29T11:04:02;2.83;;;1.30;;
32026;SDS011;18543;50.848;4.596;2022-12-29T11:06:41;3.88;;;1.60;;
32026;SDS011;18543;50.848;4.596;2022-12-29T11:09:13;3.15;;;1.20;;
32026;SDS011;18543;50.848;4.596;2022-12-29T11:12:27;2.97;;;1.23;;
32026;SDS011;18543;50.848;4.596;2022-12-29T11:15:13;4.97;;;1.60;;
32026;SDS011;18543;50.848;4.596;2022-12-29T11:17:48;3.85;;;1.50;;
32026;SDS011;18543;50.848;4.596;2022-12-29T11:20:35;4.03;;;1.52;;
32026;SDS011;18543;50.848;4.596;2022-12-29T11:23:05;3.08;;;1.42;;
32026;SDS011;18543;50.848;4.596;2022-12-29T11:28:37;5.72;;;1.60;;
32026;SDS011;18543;50.848;4.596;2022-12-29T11:31:06;3.72;;;1.40;;
32026;SDS011;18543;50.848;4.596;2022-12-29T11:33:35;2.72;;;1.08;;
32026;SDS011;18543;50.848;4.596;2022-12-29T11:36:06;4.70;;;1.17;;
32026;SDS011;18543;50.848;4.596;2022-12-29T11:38:46;3.58;;;1.20;;
32026;SDS011;18543;50.848;4.596;2022-12-29T11:41:20;5.00;;;1.65;;
32026;SDS011;18543;50.848;4.596;2022-12-29T11:43:52;4.32;;;1.27;;
32026;SDS011;18543;50.848;4.596;2022-12-29T11:46:29;2.17;;;1.13;;
32026;SDS011;18543;50.848;4.596;2022-12-29T11:49:01;2.75;;;1.27;;
32026;SDS011;18543;50.848;4.596;2022-12-29T11:51:31;3.97;;;1.23;;
32026;SDS011;18543;50.848;4.596;2022-12-29T11:54:05;3.58;;;1.40;;
32026;SDS011;18543;50.848;4.596;2022-12-29T12:01:58;1.88;;;1.20;;
32026;SDS011;18543;50.848;4.596;2022-12-29T12:04:30;4.25;;;1.30;;
32026;SDS011;18543;50.848;4.596;2022-12-29T12:07:11;3.05;;;1.30;;
32026;SDS011;18543;50.848;4.596;2022-12-29T12:09:49;2.92;;;1.58;;
32026;SDS011;18543;50.848;4.596;2022-12-29T12:12:34;2.20;;;1.20;;
32026;SDS011;18543;50.848;4.596;2022-12-29T12:15:08;3.53;;;1.50;;
32026;SDS011;18543;50.848;4.596;2022-12-29T12:20:32;2.40;;;1.10;;
32026;SDS011;18543;50.848;4.596;2022-12-29T12:23:17;2.35;;;1.20;;
32026;SDS011;18543;50.848;4.596;2022-12-29T12:26:09;5.00;;;1.60;;
32026;SDS011;18543;50.848;4.596;2022-12-29T12:28:42;5.45;;;1.30;;
32026;SDS011;18543;50.848;4.596;2022-12-29T12:31:47;7.43;;;1.80;;
32026;SDS011;18543;50.848;4.596;2022-12-29T12:34:33;3.75;;;1.40;;
32026;SDS011;18543;50.848;4.596;2022-12-29T12:50:47;7.90;;;2.03;;
32026;SDS011;18543;50.848;4.596;2022-12-29T12:59:53;13.65;;;2.55;;
32026;SDS011;18543;50.848;4.596;2022-12-29T13:13:45;9.10;;;2.20;;
32026;SDS011;18543;50.848;4.596;2022-12-29T13:20:15;11.43;;;2.85;;
32026;SDS011;18543;50.848;4.596;2022-12-29T13:30:46;11.05;;;2.55;;
32026;SDS011;18543;50.848;4.596;2022-12-29T13:33:20;7.60;;;2.20;;
32026;SDS011;18543;50.848;4.596;2022-12-29T13:40:02;12.40;;;2.97;;
32026;SDS011;18543;50.848;4.596;2022-12-29T13:42:18;13.45;;;3.00;;
32026;SDS011;18543;50.848;4.596;2022-12-29T13:44:54;15.80;;;2.90;;
32026;SDS011;18543;50.848;4.596;2022-12-29T13:47:44;15.32;;;2.60;;
32026;SDS011;18543;50.848;4.596;2022-12-29T13:50:24;18.65;;;2.50;;
32026;SDS011;18543;50.848;4.596;2022-12-29T14:01:07;16.42;;;2.97;;
32026;SDS011;18543;50.848;4.596;2022-12-29T14:03:46;9.25;;;2.50;;
32026;SDS011;18543;50.848;4.596;2022-12-29T14:06:31;16.23;;;2.88;;
32026;SDS011;18543;50.848;4.596;2022-12-29T14:09:02;9.38;;;2.63;;
32026;SDS011;18543;50.848;4.596;2022-12-29T14:11:40;14.27;;;2.83;;
32026;SDS011;18543;50.848;4.596;2022-12-29T14:14:28;15.15;;;3.25;;
32026;SDS011;18543;50.848;4.596;2022-12-29T14:17:09;15.20;;;2.70;;
32026;SDS011;18543;50.848;4.596;2022-12-29T14:19:41;12.57;;;2.88;;
32026;SDS011;18543;50.848;4.596;2022-12-29T14:22:10;10.65;;;2.47;;
32026;SDS011;18543;50.848;4.596;2022-12-29T14:24:39;10.95;;;2.50;;
32026;SDS011;18543;50.848;4.596;2022-12-29T14:34:54;12.00;;;2.97;;
32026;SDS011;18543;50.848;4.596;2022-12-29T14:37:42;13.88;;;2.70;;
32026;SDS011;18543;50.848;4.596;2022-12-29T14:43:12;12.23;;;3.17;;
32026;SDS011;18543;50.848;4.596;2022-12-29T14:45:51;19.08;;;3.20;;
32026;SDS011;18543;50.848;4.596;2022-12-29T14:48:30;12.05;;;3.30;;
32026;SDS011;18543;50.848;4.596;2022-12-29T14:51:02;13.10;;;3.35;;
32026;SDS011;18543;50.848;4.596;2022-12-29T14:56:17;16.58;;;3.83;;
32026;SDS011;18543;50.848;4.596;2022-12-29T14:58:50;17.95;;;4.30;;
32026;SDS011;18543;50.848;4.596;2022-12-29T15:02:11;16.85;;;3.55;;
32026;SDS011;18543;50.848;4.596;2022-12-29T15:04:25;18.67;;;3.80;;
32026;SDS011;18543;50.848;4.596;2022-12-29T15:06:57;20.35;;;3.53;;
32026;SDS011;18543;50.848;4.596;2022-12-29T15:09:35;16.80;;;3.70;;
32026;SDS011;18543;50.848;4.596;2022-12-29T15:14:50;14.50;;;3.63;;
32026;SDS011;18543;50.848;4.596;2022-12-29T15:17:29;12.55;;;3.03;;
32026;SDS011;18543;50.848;4.596;2022-12-29T15:20:01;13.95;;;3.33;;
32026;SDS011;18543;50.848;4.596;2022-12-29T15:22:54;14.82;;;3.28;;
32026;SDS011;18543;50.848;4.596;2022-12-29T15:25:28;11.02;;;2.85;;
32026;SDS011;18543;50.848;4.596;2022-12-29T15:28:00;10.75;;;3.13;;
32026;SDS011;18543;50.848;4.596;2022-12-29T15:30:30;13.30;;;3.00;;
32026;SDS011;18543;50.848;4.596;2022-12-29T15:32:57;11.48;;;2.88;;
32026;SDS011;18543;50.848;4.596;2022-12-29T15:35:25;10.20;;;3.42;;
32026;SDS011;18543;50.848;4.596;2022-12-29T15:38:12;15.85;;;3.20;;
32026;SDS011;18543;50.848;4.596;2022-12-29T15:40:45;16.27;;;3.22;;
32026;SDS011;18543;50.848;4.596;2022-12-29T15:43:20;21.35;;;4.10;;
32026;SDS011;18543;50.848;4.596;2022-12-29T15:45:50;18.15;;;3.70;;
32026;SDS011;18543;50.848;4.596;2022-12-29T15:48:19;13.13;;;3.80;;
32026;SDS011;18543;50.848;4.596;2022-12-29T15:50:49;14.82;;;3.80;;
32026;SDS011;18543;50.848;4.596;2022-12-29T15:53:24;14.38;;;2.92;;
32026;SDS011;18543;50.848;4.596;2022-12-29T15:56:06;12.23;;;3.08;;
32026;SDS011;18543;50.848;4.596;2022-12-29T15:58:40;20.02;;;4.00;;
32026;SDS011;18543;50.848;4.596;2022-12-29T16:03:59;14.52;;;3.67;;
32026;SDS011;18543;50.848;4.596;2022-12-29T16:06:39;15.18;;;3.35;;
32026;SDS011;18543;50.848;4.596;2022-12-29T16:09:15;14.07;;;3.33;;
32026;SDS011;18543;50.848;4.596;2022-12-29T16:11:46;23.42;;;3.38;;
32026;SDS011;18543;50.848;4.596;2022-12-29T16:14:19;19.20;;;3.55;;
32026;SDS011;18543;50.848;4.596;2022-12-29T16:16:50;17.55;;;3.08;;
32026;SDS011;18543;50.848;4.596;2022-12-29T16:19:19;11.00;;;2.82;;
32026;SDS011;18543;50.848;4.596;2022-12-29T16:21:51;16.60;;;3.20;;
32026;SDS011;18543;50.848;4.596;2022-12-29T16:24:19;14.77;;;2.95;;
32026;SDS011;18543;50.848;4.596;2022-12-29T16:26:54;13.77;;;3.05;;
32026;SDS011;18543;50.848;4.596;2022-12-29T16:29:29;13.70;;;2.78;;
32026;SDS011;18543;50.848;4.596;2022-12-29T16:31:58;9.52;;;2.70;;
32026;SDS011;18543;50.848;4.596;2022-12-29T16:34:32;8.40;;;2.65;;
32026;SDS011;18543;50.848;4.596;2022-12-29T16:37:30;8.23;;;2.55;;
32026;SDS011;18543;50.848;4.596;2022-12-29T16:42:57;13.00;;;3.08;;
32026;SDS011;18543;50.848;4.596;2022-12-29T16:50:45;8.33;;;2.10;;
32026;SDS011;18543;50.848;4.596;2022-12-29T16:55:48;11.05;;;2.35;;
32026;SDS011;18543;50.848;4.596;2022-12-29T16:58:16;6.47;;;1.80;;
32026;SDS011;18543;50.848;4.596;2022-12-29T17:00:48;6.57;;;2.20;;
32026;SDS011;18543;50.848;4.596;2022-12-29T17:03:18;6.05;;;2.50;;
32026;SDS011;18543;50.848;4.596;2022-12-29T17:05:45;6.10;;;2.53;;
32026;SDS011;18543;50.848;4.596;2022-12-29T17:08:18;7.78;;;2.38;;
32026;SDS011;18543;50.848;4.596;2022-12-29T17:10:54;5.97;;;2.47;;
32026;SDS011;18543;50.848;4.596;2022-12-29T17:13:41;7.47;;;2.58;;
32026;SDS011;18543;50.848;4.596;2022-12-29T17:16:09;6.55;;;2.47;;
32026;SDS011;18543;50.848;4.596;2022-12-29T17:18:37;4.95;;;2.40;;
32026;SDS011;18543;50.848;4.596;2022-12-29T17:21:04;6.38;;;2.63;;
32026;SDS011;18543;50.848;4.596;2022-12-29T17:23:33;6.07;;;2.40;;
32026;SDS011;18543;50.848;4.596;2022-12-29T17:26:00;6.35;;;2.53;;
32026;SDS011;18543;50.848;4.596;2022-12-29T17:28:28;6.88;;;2.63;;
32026;SDS011;18543;50.848;4.596;2022-12-29T17:31:01;6.65;;;2.13;;
32026;SDS011;18543;50.848;4.596;2022-12-29T17:33:30;5.68;;;2.35;;
32026;SDS011;18543;50.848;4.596;2022-12-29T17:36:02;5.00;;;2.30;;
32026;SDS011;18543;50.848;4.596;2022-12-29T17:38:31;7.05;;;3.13;;
32026;SDS011;18543;50.848;4.596;2022-12-29T17:41:00;9.30;;;5.20;;
32026;SDS011;18543;50.848;4.596;2022-12-29T17:43:28;11.53;;;5.47;;
32026;SDS011;18543;50.848;4.596;2022-12-29T17:46:01;17.92;;;7.10;;
32026;SDS011;18543;50.848;4.596;2022-12-29T17:48:30;16.23;;;7.60;;
32026;SDS011;18543;50.848;4.596;2022-12-29T17:50:57;16.35;;;7.60;;
32026;SDS011;18543;50.848;4.596;2022-12-29T17:53:25;19.83;;;8.70;;
32026;SDS011;18543;50.848;4.596;2022-12-29T17:55:54;14.55;;;7.90;;
32026;SDS011;18543;50.848;4.596;2022-12-29T17:58:22;20.55;;;8.85;;
32026;SDS011;18543;50.848;4.596;2022-12-29T18:00:55;19.00;;;8.30;;
32026;SDS011;18543;50.848;4.596;2022-12-29T18:03:31;19.25;;;8.98;;